Time;durP1;ratioP1;P1;durP2;ratioP2;P2;SDS_P1;SDS_P2;PMS_P1;PMS_P2;Temp;Humidity;BMP_temperature;BMP_pressure;BME280_temperature;BME280_humidity;BME280_pressure;Samples;Min_cycle;Max_cycle;Signal;HPM_P1;HPM_P2
2023/06/07 00:04:56;;;;;;;12.1;10.4;;;;;;;16.2;85.5;98780;;;;
2023/06/07 00:15:56;;;;;;;12.1;10.4;;;;;;;16.3;85.1;98780;;;;
2023/06/07 00:26:56;;;;;;;12.1;10.4;;;;;;;16.4;84.2;98780;;;;
2023/06/07 00:36:56;;;;;;;12.7;9.8;;;;;;;16.3;84.8;98770;;;;
2023/06/07 00:46:56;;;;;;;12.7;9.8;;;;;;;16.2;85.8;98770;;;;
2023/06/07 00:57:56;;;;;;;;;;;;;;;16.3;85;98770;;;;
2023/06/07 01:08:56;;;;;;;12.8;11.5;;;;;;;16.2;85.2;98770;;;;
2023/06/07 01:18:56;;;;;;;12.8;11.5;;;;;;;16.1;86;98770;;;;
2023/06/07 01:29:05;;;;;;;12.8;11.5;;;;;;;16;87;98760;;;;
2023/06/07 01:39:56;;;;;;;14;11.6;;;;;;;16;86.4;98750;;;;
2023/06/07 01:49:57;;;;;;;14;11.6;;;;;;;16;86.4;98750;;;;
2023/06/07 01:59:56;;;;;;;14;11.6;;;;;;;15.9;86.5;98750;;;;
2023/06/07 02:09:56;;;;;;;15.4;13;;;;;;;15.9;86.3;98750;;;;
2023/06/07 02:19:56;;;;;;;15.4;13;;;;;;;15.7;88;98750;;;;
2023/06/07 02:30:57;;;;;;;15.4;13;;;;;;;15.6;88.9;98750;;;;
2023/06/07 02:41:56;;;;;;;17.9;13.4;;;;;;;15.7;88.1;98750;;;;
2023/06/07 02:52:56;;;;;;;17.9;13.4;;;;;;;15.8;87.2;98750;;;;
2023/06/07 03:03:56;;;;;;;14.8;12.3;;;;;;;15.9;86.8;98760;;;;
2023/06/07 03:13:56;;;;;;;14.8;12.3;;;;;;;15.9;87;98760;;;;
2023/06/07 03:24:57;;;;;;;14.8;12.3;;;;;;;15.9;87.4;98760;;;;
2023/06/07 03:34:56;;;;;;;15.1;11.8;;;;;;;16.2;86.6;98770;;;;
2023/06/07 03:45:56;;;;;;;15.1;11.8;;;;;;;16.1;87;98770;;;;
2023/06/07 03:56:57;;;;;;;15.1;11.8;;;;;;;16.1;87.3;98770;;;;
2023/06/07 04:06:57;;;;;;;15.9;13.7;;;;;;;16.3;86.3;98770;;;;
2023/06/07 04:16:56;;;;;;;15.9;13.7;;;;;;;16.3;86.5;98770;;;;
2023/06/07 04:27:59;;;;;;;15.9;13.7;;;;;;;16.5;85.7;98780;;;;
2023/06/07 04:37:57;;;;;;;15.8;12.6;;;;;;;16.7;84.9;98770;;;;
2023/06/07 04:48:57;;;;;;;15.8;12.6;;;;;;;16.7;84.5;98780;;;;
2023/06/07 04:59:56;;;;;;;15.8;12.6;;;;;;;17.1;83.9;98780;;;;
2023/06/07 05:09:56;;;;;;;15.7;11.6;;;;;;;17.1;82.7;98780;;;;
2023/06/07 05:19:56;;;;;;;19.8;14.6;;;;;;;17.2;82.4;98780;;;;
2023/06/07 05:29:56;;;;;;;19.8;14.6;;;;;;;17.4;81.8;98780;;;;
2023/06/07 05:39:56;;;;;;;19.8;14.6;;;;;;;17.5;81.2;98780;;;;
2023/06/07 05:50:57;;;;;;;17.2;12.6;;;;;;;18.4;78.9;98790;;;;
2023/06/07 06:01:56;;;;;;;17.2;12.6;;;;;;;18.9;76.7;98800;;;;
2023/06/07 06:11:56;;;;;;;17.2;12.6;;;;;;;19.7;73.7;98790;;;;
2023/06/07 06:21:56;;;;;;;19.3;11;;;;;;;20.1;71.1;98790;;;;
2023/06/07 06:31:56;;;;;;;19.3;11;;;;;;;19.9;72.4;98790;;;;
2023/06/07 06:42:56;;;;;;;11.9;9;;;;;;;20.5;70.5;98780;;;;
2023/06/07 06:52:56;;;;;;;11.9;9;;;;;;;20.9;69.4;98780;;;;
2023/06/07 07:02:56;;;;;;;11.9;9;;;;;;;20.4;70.4;98780;;;;
2023/06/07 07:13:56;;;;;;;9.6;7.5;;;;;;;21;67;98780;;;;
2023/06/07 07:24:57;;;;;;;9.6;7.5;;;;;;;20.8;67.8;98790;;;;
2023/06/07 07:34:56;;;;;;;9.6;7.5;;;;;;;20.4;68.4;98790;;;;
2023/06/07 07:45:56;;;;;;;10.5;6.3;;;;;;;20.7;67.1;98800;;;;
2023/06/07 07:55:56;;;;;;;10.5;6.3;;;;;;;20.5;67.7;98790;;;;
2023/06/07 08:05:56;;;;;;;10.5;6.3;;;;;;;20.6;67.4;98800;;;;
2023/06/07 08:15:56;;;;;;;7.8;5.8;;;;;;;20.7;66.7;98800;;;;
2023/06/07 08:26:56;;;;;;;7.8;5.8;;;;;;;21.3;66.3;98800;;;;
2023/06/07 08:36:57;;;;;;;7.8;5.8;;;;;;;21.9;63.2;98790;;;;
2023/06/07 08:46:56;;;;;;;8.3;5.8;;;;;;;22.5;60.2;98780;;;;
2023/06/07 08:56:56;;;;;;;8.3;5.8;;;;;;;23.3;57.3;98770;;;;
2023/06/07 09:06:56;;;;;;;8.3;5.8;;;;;;;22.7;58.9;98770;;;;
2023/06/07 09:17:58;;;;;;;8.3;4.6;;;;;;;23.8;55.1;98770;;;;
2023/06/07 09:27:56;;;;;;;8.3;4.6;;;;;;;23.7;56.1;98780;;;;
2023/06/07 09:38:57;;;;;;;8.3;4.6;;;;;;;23.7;57.3;98770;;;;
2023/06/07 09:48:56;;;;;;;8.4;3.9;;;;;;;23.8;55.2;98760;;;;
2023/06/07 09:58:56;;;;;;;8.4;3.9;;;;;;;23.7;54.9;98770;;;;
2023/06/07 10:09:56;;;;;;;8.4;3.9;;;;;;;22.4;58.4;98760;;;;
2023/06/07 10:19:58;;;;;;;5.6;3.2;;;;;;;22.2;59.5;98750;;;;
2023/06/07 10:29:56;;;;;;;5.6;3.2;;;;;;;22.2;61.6;98760;;;;
2023/06/07 10:40:56;;;;;;;5.6;3.2;;;;;;;22.9;58.9;98760;;;;
2023/06/07 10:51:58;;;;;;;7.7;4.3;;;;;;;23.3;59.2;98740;;;;
2023/06/07 11:01:56;;;;;;;7.7;4.3;;;;;;;23;58;98740;;;;
2023/06/07 11:12:57;;;;;;;7.7;4.3;;;;;;;23.3;56.1;98740;;;;
2023/06/07 11:23:56;;;;;;;6.4;3.8;;;;;;;22.8;57.6;98740;;;;
2023/06/07 11:34:57;;;;;;;6.4;3.8;;;;;;;22.7;59.7;98740;;;;
2023/06/07 11:44:56;;;;;;;7.6;4.1;;;;;;;21.2;64.7;98750;;;;
2023/06/07 11:54:56;;;;;;;7.6;4.1;;;;;;;20.9;67.7;98760;;;;
2023/06/07 12:04:56;;;;;;;7.6;4.1;;;;;;;20.7;67.4;98750;;;;
2023/06/07 12:14:56;;;;;;;7.8;5.3;;;;;;;20.4;69.9;98760;;;;
2023/06/07 12:25:56;;;;;;;7.8;5.3;;;;;;;20.7;69.2;98740;;;;
2023/06/07 12:35:57;;;;;;;7.8;5.3;;;;;;;21.1;67.7;98740;;;;
2023/06/07 12:45:57;;;;;;;7.5;4.2;;;;;;;20.6;68;98740;;;;
2023/06/07 12:55:56;;;;;;;7.5;4.2;;;;;;;21.1;67.2;98730;;;;
2023/06/07 13:05:56;;;;;;;7.5;4.2;;;;;;;21.6;66.2;98740;;;;
2023/06/07 13:15:58;;;;;;;5.3;3;;;;;;;22;63.9;98730;;;;
2023/06/07 13:25:56;;;;;;;5.3;3;;;;;;;22.7;60.4;98730;;;;
2023/06/07 13:36:57;;;;;;;5.3;3;;;;;;;23.5;59.9;98710;;;;
2023/06/07 13:47:56;;;;;;;4.8;2.7;;;;;;;23.2;61;98710;;;;
2023/06/07 13:57:56;;;;;;;4.8;2.7;;;;;;;23.8;59;98700;;;;
2023/06/07 14:08:56;;;;;;;4.8;2.7;;;;;;;23.5;55.3;98710;;;;
2023/06/07 14:18:56;;;;;;;4.7;2.9;;;;;;;23.6;56.2;98710;;;;
2023/06/07 14:29:56;;;;;;;4.7;2.9;;;;;;;24;53.2;98700;;;;
2023/06/07 14:40:56;;;;;;;4.7;2.9;;;;;;;23.8;56.3;98700;;;;
2023/06/07 14:50:56;;;;;;;3.6;1.9;;;;;;;22.6;58.9;98710;;;;
2023/06/07 15:00:56;;;;;;;3.6;1.9;;;;;;;22.3;60.6;98710;;;;
2023/06/07 15:10:56;;;;;;;3.6;1.9;;;;;;;23.1;60.1;98720;;;;
2023/06/07 15:21:56;;;;;;;5.9;2.2;;;;;;;23.5;58.3;98710;;;;
2023/06/07 15:31:56;;;;;;;5.9;2.2;;;;;;;23.8;58.5;98730;;;;
2023/06/07 15:41:56;;;;;;;5.9;2.2;;;;;;;22.7;60.8;98720;;;;
2023/06/07 15:52:57;;;;;;;6.3;2.9;;;;;;;22.1;63.5;98720;;;;
2023/06/07 16:03:56;;;;;;;6.3;2.9;;;;;;;22;64.2;98720;;;;
2023/06/07 16:14:56;;;;;;;5.4;2.9;;;;;;;21.4;66.1;98730;;;;
2023/06/07 16:25:56;;;;;;;5.4;2.9;;;;;;;21;67;98730;;;;
2023/06/07 16:35:56;;;;;;;5.4;2.9;;;;;;;20.8;68.2;98730;;;;
2023/06/07 16:45:56;;;;;;;7.9;4.4;;;;;;;21.2;67.6;98740;;;;
2023/06/07 16:56:56;;;;;;;7.9;4.4;;;;;;;21.1;68.2;98730;;;;
2023/06/07 17:07:56;;;;;;;7.9;4.4;;;;;;;20.5;69.7;98730;;;;
2023/06/07 17:18:56;;;;;;;6.7;3.9;;;;;;;20.1;69.3;98720;;;;
2023/06/07 17:28:56;;;;;;;6.7;3.9;;;;;;;19.6;70.7;98720;;;;
2023/06/07 17:39:56;;;;;;;6.7;3.9;;;;;;;19.7;70.6;98730;;;;
2023/06/07 17:50:56;;;;;;;5.6;3.2;;;;;;;19.4;71.5;98740;;;;
2023/06/07 18:01:56;;;;;;;5.6;3.2;;;;;;;19.2;72.4;98740;;;;
2023/06/07 18:11:56;;;;;;;5.6;3.2;;;;;;;18.9;74;98740;;;;
2023/06/07 18:21:57;;;;;;;5.5;3.4;;;;;;;18.8;74.5;98750;;;;
2023/06/07 18:32:56;;;;;;;5.5;3.4;;;;;;;18.6;75.5;98750;;;;
2023/06/07 18:42:56;;;;;;;5.5;3.4;;;;;;;18.5;76.1;98750;;;;
2023/06/07 18:52:56;;;;;;;6.2;3.6;;;;;;;18.3;77.5;98750;;;;
2023/06/07 19:02:57;;;;;;;6.2;3.6;;;;;;;18.2;78.3;98760;;;;
2023/06/07 19:12:56;;;;;;;6.2;3.6;;;;;;;18;79.3;98770;;;;
2023/06/07 19:22:56;;;;;;;6.5;4.5;;;;;;;17.9;80.4;98790;;;;
2023/06/07 19:33:56;;;;;;;6.5;4.5;;;;;;;17.9;80.5;98790;;;;
2023/06/07 19:43:56;;;;;;;7.5;5.4;;;;;;;17.8;80.6;98790;;;;
2023/06/07 19:54:56;;;;;;;7.5;5.4;;;;;;;17.7;81.4;98790;;;;
2023/06/07 20:05:56;;;;;;;7.5;5.4;;;;;;;17.6;81.9;98790;;;;
2023/06/07 20:15:56;;;;;;;9.2;6.1;;;;;;;17.4;82.9;98800;;;;
2023/06/07 20:25:56;;;;;;;9.2;6.1;;;;;;;17.4;83;98790;;;;
2023/06/07 20:36:56;;;;;;;9.2;6.1;;;;;;;17.3;83.3;98790;;;;
2023/06/07 20:47:56;;;;;;;7.6;5.6;;;;;;;17.2;83;98790;;;;
2023/06/07 20:57:56;;;;;;;7.6;5.6;;;;;;;17.1;83.1;98790;;;;
2023/06/07 21:07:56;;;;;;;7.6;5.6;;;;;;;16.8;84;98800;;;;
2023/06/07 21:18:56;;;;;;;8.8;5.4;;;;;;;16.6;84;98800;;;;
2023/06/07 21:28:56;;;;;;;8.8;5.4;;;;;;;16.4;83.8;98810;;;;
2023/06/07 21:38:57;;;;;;;8.8;5.4;;;;;;;16.1;84.8;98800;;;;
2023/06/07 21:49:57;;;;;;;10.4;6.7;;;;;;;15.9;85.3;98790;;;;
2023/06/07 21:59:56;;;;;;;10.4;6.7;;;;;;;15.6;86.5;98790;;;;
2023/06/07 22:09:59;;;;;;;10.4;6.7;;;;;;;15.4;86.1;98790;;;;
2023/06/07 22:19:57;;;;;;;10.3;7.2;;;;;;;15.2;86.6;98780;;;;
2023/06/07 22:30:57;;;;;;;10.3;7.2;;;;;;;14.9;85.9;98790;;;;
2023/06/07 22:40:57;;;;;;;10.3;7.2;;;;;;;14.8;86.4;98780;;;;
2023/06/07 22:51:00;;;;;;;10.2;7;;;;;;;14.6;86.9;98770;;;;
2023/06/07 23:01:02;;;;;;;10.2;7;;;;;;;14.4;87;98770;;;;
2023/06/07 23:11:59;;;;;;;10.2;7;;;;;;;14.2;86.8;98770;;;;
2023/06/07 23:21:58;;;;;;;10.2;6.8;;;;;;;13.9;87.1;98770;;;;
2023/06/07 23:32:57;;;;;;;10.2;6.8;;;;;;;13.8;88.2;98760;;;;
2023/06/07 23:42:56;;;;;;;10.2;6.8;;;;;;;13.9;89.6;98760;;;;
2023/06/07 23:52:57;;;;;;;9.5;7.4;;;;;;;14;89.8;98760;;;;
